createdAt,value
2023-10-25T00:04:10.975Z,17.7
2023-10-25T00:09:17.081Z,17.7
2023-10-25T00:14:23.161Z,17.7
2023-10-25T00:19:29.247Z,17.7
2023-10-25T00:24:35.335Z,17.7
2023-10-25T00:29:41.446Z,17.7
2023-10-25T00:34:47.520Z,17.7
2023-10-25T00:39:53.611Z,17.7
2023-10-25T00:44:59.691Z,17.7
2023-10-25T00:50:05.788Z,17.7
2023-10-25T00:55:11.871Z,17.7
2023-10-25T01:00:16.971Z,17.6
2023-10-25T01:05:23.070Z,17.6
2023-10-25T01:10:29.166Z,17.6
2023-10-25T01:15:35.249Z,17.6
2023-10-25T01:20:41.355Z,17.6
2023-10-25T01:25:47.432Z,17.6
2023-10-25T01:30:53.515Z,17.6
2023-10-25T01:35:59.609Z,17.6
2023-10-25T01:41:05.719Z,17.6
2023-10-25T01:46:11.807Z,17.6
2023-10-25T01:51:17.900Z,17.6
2023-10-25T01:56:23.993Z,17.6
2023-10-25T02:01:30.073Z,17.6
2023-10-25T02:06:35.204Z,17.6
2023-10-25T02:11:41.258Z,17.6
2023-10-25T02:16:47.343Z,17.6
2023-10-25T02:21:53.434Z,17.6
2023-10-25T02:26:59.538Z,17.6
2023-10-25T02:32:05.605Z,17.6
2023-10-25T02:37:11.715Z,17.6
2023-10-25T02:42:17.793Z,17.5
2023-10-25T02:47:23.907Z,17.5
2023-10-25T02:52:29.977Z,17.5
2023-10-25T02:57:36.062Z,17.5
2023-10-25T03:02:42.153Z,17.5
2023-10-25T03:07:48.237Z,17.5
2023-10-25T03:12:53.339Z,17.5
2023-10-25T03:17:59.430Z,17.5
2023-10-25T03:23:05.522Z,17.5
2023-10-25T03:28:11.611Z,17.5
2023-10-25T03:33:17.738Z,17.5
2023-10-25T03:38:23.804Z,17.5
2023-10-25T03:43:29.882Z,17.5
2023-10-25T03:48:35.983Z,17.5
2023-10-25T03:53:42.063Z,17.5
2023-10-25T03:58:48.154Z,17.5
2023-10-25T04:03:54.243Z,17.5
2023-10-25T04:09:00.322Z,17.5
2023-10-25T04:14:06.418Z,17.4
2023-10-25T04:19:11.949Z,17.4
2023-10-25T04:24:17.621Z,17.4
2023-10-25T04:29:23.711Z,17.4
2023-10-25T04:34:29.797Z,17.4
2023-10-25T04:39:35.859Z,17.4
2023-10-25T04:44:41.967Z,17.4
2023-10-25T04:49:48.062Z,17.4
2023-10-25T04:54:54.142Z,17.4
2023-10-25T05:00:00.232Z,17.4
2023-10-25T05:05:06.329Z,17.4
2023-10-25T05:10:12.409Z,17.4
2023-10-25T05:15:18.493Z,17.4
2023-10-25T05:20:24.574Z,17.4
2023-10-25T05:25:29.683Z,17.4
2023-10-25T05:30:35.765Z,17.4
2023-10-25T05:35:41.856Z,17.4
2023-10-25T05:40:47.953Z,17.4
2023-10-25T05:45:54.052Z,17.4
2023-10-25T05:51:00.135Z,17.4
2023-10-25T05:56:06.214Z,17.6
2023-10-25T06:01:12.320Z,17.9
2023-10-25T06:06:18.400Z,18.2
2023-10-25T06:11:24.496Z,18.5
2023-10-25T06:16:30.593Z,18.7
2023-10-25T06:21:36.677Z,18.6
2023-10-25T06:36:54.955Z,18.3
2023-10-25T06:42:00.032Z,18.3
2023-10-25T06:47:06.166Z,18.4
2023-10-25T06:52:12.229Z,18.5
2023-10-25T06:57:18.310Z,18.5
2023-10-25T07:02:24.403Z,18.5
2023-10-25T07:07:30.491Z,18.5
2023-10-25T07:12:36.583Z,18.5
2023-10-25T07:17:42.681Z,18.6
2023-10-25T07:27:54.851Z,18.5
2023-10-25T07:32:59.970Z,18.6
2023-10-25T07:38:05.077Z,18.6
2023-10-25T07:43:11.162Z,18.7
2023-10-25T07:53:23.351Z,18.7
2023-10-25T07:58:29.448Z,18.7
2023-10-25T08:03:35.516Z,18.7
2023-10-25T08:08:41.603Z,18.7
2023-10-25T08:13:47.692Z,18.8
2023-10-25T08:18:53.805Z,18.8
2023-10-25T08:23:59.881Z,18.7
2023-10-25T08:29:05.976Z,18.8
2023-10-25T08:34:12.064Z,18.8
2023-10-25T08:39:18.160Z,18.8
2023-10-25T08:44:23.277Z,18.8
2023-10-25T08:49:29.352Z,18.8
2023-10-25T08:54:35.414Z,18.8
2023-10-25T08:59:41.522Z,18.8
2023-10-25T09:04:47.610Z,18.8
2023-10-25T09:09:53.706Z,18.8
2023-10-25T09:14:59.815Z,18.8
2023-10-25T09:20:04.904Z,18.8
2023-10-25T09:25:10.017Z,18.8
2023-10-25T09:30:16.109Z,18.9
2023-10-25T09:35:22.201Z,18.9
2023-10-25T09:40:28.285Z,18.9
2023-10-25T09:45:34.369Z,18.9
2023-10-25T09:55:46.568Z,18.9
2023-10-25T10:00:52.647Z,18.9
2023-10-25T10:05:58.726Z,18.9
2023-10-25T10:11:04.834Z,18.9
2023-10-25T10:16:10.928Z,18.8
2023-10-25T10:21:17.003Z,18.9
2023-10-25T10:26:23.091Z,18.8
2023-10-25T10:31:28.186Z,18.8
2023-10-25T10:36:34.290Z,18.8
2023-10-25T10:41:40.393Z,18.8
2023-10-25T10:46:46.476Z,18.8
2023-10-25T10:51:52.547Z,18.8
2023-10-25T10:56:58.659Z,18.7
2023-10-25T11:02:04.736Z,18.7
2023-10-25T11:07:10.823Z,18.8
2023-10-25T11:12:16.915Z,18.8
2023-10-25T11:17:23.020Z,18.9
2023-10-25T11:22:29.096Z,18.9
2023-10-25T11:27:35.191Z,18.9
2023-10-25T11:32:41.283Z,18.9
2023-10-25T11:37:46.360Z,18.9
2023-10-25T11:42:52.469Z,18.9
2023-10-25T11:47:58.551Z,18.8
2023-10-25T11:53:04.634Z,18.8
2023-10-25T11:58:10.785Z,18.9
2023-10-25T12:03:16.833Z,18.9
2023-10-25T12:08:22.919Z,18.9
2023-10-25T12:13:29.016Z,18.9
2023-10-25T12:18:35.098Z,18.9
2023-10-25T12:23:41.182Z,18.9
2023-10-25T12:28:47.277Z,18.9
2023-10-25T12:38:59.465Z,19
2023-10-25T12:44:04.570Z,19
2023-10-25T12:49:10.654Z,19
2023-10-25T12:54:16.729Z,19
2023-10-25T12:59:22.824Z,19
2023-10-25T13:04:28.914Z,19
2023-10-25T13:09:35.013Z,19.1
2023-10-25T13:14:41.095Z,19.1
2023-10-25T13:19:47.176Z,19.1
2023-10-25T13:24:53.308Z,19.1
2023-10-25T13:29:59.370Z,19.1
2023-10-25T13:35:05.450Z,19.1
2023-10-25T13:40:11.539Z,19.1
2023-10-25T13:45:17.644Z,19.1
2023-10-25T13:50:22.743Z,19.1
2023-10-25T13:55:28.935Z,19.1
2023-10-25T14:00:34.921Z,19.1
2023-10-25T14:05:41.003Z,19.1
2023-10-25T14:10:47.390Z,19.1
2023-10-25T14:15:53.414Z,19.1
2023-10-25T14:20:59.627Z,19.1
2023-10-25T14:26:05.522Z,19.1
2023-10-25T14:31:11.793Z,19.1
2023-10-25T14:36:17.784Z,19.1
2023-10-25T14:41:23.922Z,19
2023-10-25T14:46:29.906Z,19
2023-10-25T14:51:36.013Z,19
2023-10-25T14:56:41.127Z,19.1
2023-10-25T15:06:53.095Z,19
2023-10-25T15:11:59.276Z,19
2023-10-25T15:17:05.475Z,19
2023-10-25T15:22:11.602Z,19
2023-10-25T15:27:17.467Z,19
2023-10-25T15:32:23.777Z,19
2023-10-25T15:37:29.934Z,19
2023-10-25T15:42:36.047Z,19
2023-10-25T15:47:41.828Z,19
2023-10-25T15:52:47.891Z,19
2023-10-25T15:57:54.139Z,19
2023-10-25T16:02:59.114Z,19
2023-10-25T16:08:05.435Z,19
2023-10-25T16:13:11.583Z,19
2023-10-25T16:18:17.504Z,19
2023-10-25T16:23:23.936Z,19
2023-10-25T16:28:29.949Z,19
2023-10-25T16:38:42.082Z,19
2023-10-25T16:43:48.207Z,19
2023-10-25T16:48:54.048Z,19
2023-10-25T16:54:00.153Z,19
2023-10-25T16:59:05.400Z,19
2023-10-25T17:04:11.366Z,19
2023-10-25T17:09:17.627Z,19
2023-10-25T17:14:23.675Z,19
2023-10-25T17:19:28.723Z,19
2023-10-25T17:24:33.948Z,18.9
2023-10-25T17:29:40.035Z,19
2023-10-25T17:34:46.000Z,19
2023-10-25T17:39:52.026Z,19
2023-10-25T17:44:57.993Z,19
2023-10-25T17:50:04.258Z,19
2023-10-25T17:55:10.435Z,19
2023-10-25T18:00:16.601Z,18.9
2023-10-25T18:10:28.566Z,18.9
2023-10-25T18:15:34.811Z,18.9
2023-10-25T18:20:40.603Z,18.8
2023-10-25T18:25:47.037Z,18.8
2023-10-25T18:30:52.565Z,18.8
2023-10-25T18:35:57.972Z,18.8
2023-10-25T18:41:04.304Z,18.7
2023-10-25T18:46:10.426Z,18.7
2023-10-25T18:51:16.158Z,18.7
2023-10-25T18:56:22.504Z,18.7
2023-10-25T19:01:28.324Z,18.7
2023-10-25T19:06:34.419Z,18.6
2023-10-25T19:16:46.924Z,18.6
2023-10-25T19:21:52.997Z,18.6
2023-10-25T19:26:58.923Z,18.6
2023-10-25T19:32:04.866Z,18.5
2023-10-25T19:37:10.337Z,18.5
2023-10-25T19:42:16.377Z,18.5
2023-10-25T19:47:22.156Z,18.5
2023-10-25T19:52:28.633Z,18.5
2023-10-25T19:57:34.701Z,18.5
2023-10-25T20:02:40.418Z,18.5
2023-10-25T20:07:46.808Z,18.4
2023-10-25T20:12:52.903Z,18.4
2023-10-25T20:17:59.026Z,18.4
2023-10-25T20:23:05.060Z,18.4
2023-10-25T20:28:11.217Z,18.4
2023-10-25T20:33:17.308Z,18.4
2023-10-25T20:38:23.398Z,18.3
2023-10-25T20:43:28.465Z,18.3
2023-10-25T20:48:34.571Z,18.3
2023-10-25T20:53:40.335Z,18.3
2023-10-25T20:58:46.801Z,18.3
2023-10-25T21:03:52.885Z,18.3
2023-10-25T21:08:58.678Z,18.3
2023-10-25T21:14:04.916Z,18.3
2023-10-25T21:19:11.139Z,18.3
2023-10-25T21:24:17.184Z,18.2
2023-10-25T21:29:23.339Z,18.2
2023-10-25T21:34:29.100Z,18.2
2023-10-25T21:39:35.462Z,18.2
2023-10-25T21:44:41.549Z,18.2
2023-10-25T21:49:46.688Z,18.2
2023-10-25T21:54:52.434Z,18.2
2023-10-25T21:59:58.925Z,18.2
2023-10-25T22:05:04.966Z,18.2
2023-10-25T22:10:10.830Z,18.2
2023-10-25T22:15:16.851Z,18.2
2023-10-25T22:20:23.092Z,18.1
2023-10-25T22:25:29.319Z,18.1
2023-10-25T22:30:35.052Z,18.1
2023-10-25T22:35:41.507Z,18.1
2023-10-25T22:40:47.558Z,18.1
2023-10-25T22:45:53.659Z,18.1
2023-10-25T22:50:59.433Z,18.1
2023-10-25T22:56:04.904Z,18.1
2023-10-25T23:01:10.983Z,18.1
2023-10-25T23:06:16.856Z,18.1
2023-10-25T23:11:23.188Z,18.1
2023-10-25T23:16:29.247Z,18.1
2023-10-25T23:21:35.045Z,18.1
2023-10-25T23:26:41.441Z,18
2023-10-25T23:31:47.512Z,18
2023-10-25T23:36:53.549Z,18
2023-10-25T23:41:59.515Z,18
2023-10-25T23:47:05.750Z,18
2023-10-25T23:52:11.556Z,18
2023-10-25T23:57:17.611Z,18
